sensor_id;sensor_type;location;lat;lon;timestamp;pressure;altitude;pressure_sealevel;temperature;humidity
25350;BME280;13302;48.796;11.978;2024-01-11T00:01:47;97750.06;;;-1.89;33.01
25350;BME280;13302;48.796;11.978;2024-01-11T00:04:34;97754.09;;;-1.91;32.98
25350;BME280;13302;48.796;11.978;2024-01-11T00:07:21;97744.72;;;-1.83;32.89
25350;BME280;13302;48.796;11.978;2024-01-11T00:10:09;97746.41;;;-1.77;32.75
25350;BME280;13302;48.796;11.978;2024-01-11T00:12:56;97748.38;;;-1.73;32.69
25350;BME280;13302;48.796;11.978;2024-01-11T00:15:43;97753.84;;;-1.90;32.92
25350;BME280;13302;48.796;11.978;2024-01-11T00:18:30;97747.75;;;-1.80;32.64
25350;BME280;13302;48.796;11.978;2024-01-11T00:21:17;97747.28;;;-1.94;32.90
25350;BME280;13302;48.796;11.978;2024-01-11T00:24:04;97745.06;;;-1.97;32.86
25350;BME280;13302;48.796;11.978;2024-01-11T00:26:51;97740.72;;;-1.98;32.77
25350;BME280;13302;48.796;11.978;2024-01-11T00:29:38;97743.94;;;-2.01;32.92
25350;BME280;13302;48.796;11.978;2024-01-11T00:32:25;97746.97;;;-1.97;32.70
25350;BME280;13302;48.796;11.978;2024-01-11T00:35:13;97749.97;;;-1.94;32.83
25350;BME280;13302;48.796;11.978;2024-01-11T00:38:00;97747.16;;;-2.04;32.96
25350;BME280;13302;48.796;11.978;2024-01-11T00:40:47;97752.06;;;-2.17;33.31
25350;BME280;13302;48.796;11.978;2024-01-11T00:43:34;97759.22;;;-2.11;33.15
25350;BME280;13302;48.796;11.978;2024-01-11T00:46:21;97748.34;;;-1.95;32.62
25350;BME280;13302;48.796;11.978;2024-01-11T00:49:08;97748.19;;;-1.88;32.50
25350;BME280;13302;48.796;11.978;2024-01-11T00:51:55;97750.31;;;-2.07;32.94
25350;BME280;13302;48.796;11.978;2024-01-11T00:54:42;97740.31;;;-2.06;33.00
25350;BME280;13302;48.796;11.978;2024-01-11T00:57:29;97733.34;;;-2.02;32.93
25350;BME280;13302;48.796;11.978;2024-01-11T01:00:16;97736.00;;;-2.07;32.94
25350;BME280;13302;48.796;11.978;2024-01-11T01:03:04;97739.06;;;-1.99;32.58
25350;BME280;13302;48.796;11.978;2024-01-11T01:05:51;97746.63;;;-2.01;32.63
25350;BME280;13302;48.796;11.978;2024-01-11T01:08:38;97750.09;;;-2.05;32.88
25350;BME280;13302;48.796;11.978;2024-01-11T01:11:25;97745.56;;;-2.00;32.76
25350;BME280;13302;48.796;11.978;2024-01-11T01:14:13;97750.59;;;-2.08;32.71
25350;BME280;13302;48.796;11.978;2024-01-11T01:17:00;97754.13;;;-2.08;32.82
25350;BME280;13302;48.796;11.978;2024-01-11T01:19:47;97758.13;;;-2.10;32.74
25350;BME280;13302;48.796;11.978;2024-01-11T01:22:34;97759.44;;;-1.96;32.48
25350;BME280;13302;48.796;11.978;2024-01-11T01:25:21;97755.81;;;-2.02;32.48
25350;BME280;13302;48.796;11.978;2024-01-11T01:28:08;97761.50;;;-2.03;32.54
25350;BME280;13302;48.796;11.978;2024-01-11T01:30:55;97769.28;;;-2.07;32.94
25350;BME280;13302;48.796;11.978;2024-01-11T01:33:42;97771.25;;;-2.36;33.51
25350;BME280;13302;48.796;11.978;2024-01-11T01:36:29;97773.66;;;-2.22;33.25
25350;BME280;13302;48.796;11.978;2024-01-11T01:39:16;97766.59;;;-2.23;33.26
25350;BME280;13302;48.796;11.978;2024-01-11T01:42:04;97761.59;;;-2.32;33.35
25350;BME280;13302;48.796;11.978;2024-01-11T01:44:52;97771.28;;;-2.19;33.21
25350;BME280;13302;48.796;11.978;2024-01-11T01:47:40;97762.06;;;-2.01;32.74
25350;BME280;13302;48.796;11.978;2024-01-11T01:50:28;97772.28;;;-2.08;32.62
25350;BME280;13302;48.796;11.978;2024-01-11T01:53:18;97767.19;;;-2.21;33.14
25350;BME280;13302;48.796;11.978;2024-01-11T01:56:06;97767.41;;;-2.40;33.54
25350;BME280;13302;48.796;11.978;2024-01-11T01:58:55;97771.75;;;-2.39;33.55
25350;BME280;13302;48.796;11.978;2024-01-11T02:01:42;97774.34;;;-2.32;33.49
25350;BME280;13302;48.796;11.978;2024-01-11T02:04:30;97770.28;;;-2.13;32.86
25350;BME280;13302;48.796;11.978;2024-01-11T02:07:18;97770.63;;;-2.09;33.00
25350;BME280;13302;48.796;11.978;2024-01-11T02:10:07;97770.13;;;-2.06;32.69
25350;BME280;13302;48.796;11.978;2024-01-11T02:12:54;97773.41;;;-2.21;33.09
25350;BME280;13302;48.796;11.978;2024-01-11T02:15:41;97774.72;;;-2.07;32.78
25350;BME280;13302;48.796;11.978;2024-01-11T02:18:28;97774.88;;;-2.13;32.89
25350;BME280;13302;48.796;11.978;2024-01-11T02:21:16;97777.91;;;-2.10;32.47
25350;BME280;13302;48.796;11.978;2024-01-11T02:24:04;97770.06;;;-2.11;32.70
25350;BME280;13302;48.796;11.978;2024-01-11T02:27:03;97773.91;;;-2.24;32.80
25350;BME280;13302;48.796;11.978;2024-01-11T02:29:50;97779.66;;;-2.20;32.92
25350;BME280;13302;48.796;11.978;2024-01-11T02:32:38;97772.91;;;-2.35;32.84
25350;BME280;13302;48.796;11.978;2024-01-11T02:35:26;97775.31;;;-2.21;32.78
25350;BME280;13302;48.796;11.978;2024-01-11T02:38:13;97775.84;;;-2.19;32.58
25350;BME280;13302;48.796;11.978;2024-01-11T02:41:00;97780.22;;;-2.35;32.94
25350;BME280;13302;48.796;11.978;2024-01-11T02:43:48;97769.78;;;-2.43;33.14
25350;BME280;13302;48.796;11.978;2024-01-11T02:46:35;97764.22;;;-2.53;33.31
25350;BME280;13302;48.796;11.978;2024-01-11T02:49:22;97756.44;;;-2.50;33.33
25350;BME280;13302;48.796;11.978;2024-01-11T02:52:09;97760.84;;;-2.44;33.10
25350;BME280;13302;48.796;11.978;2024-01-11T02:54:57;97765.38;;;-2.32;32.61
25350;BME280;13302;48.796;11.978;2024-01-11T02:57:44;97757.25;;;-2.32;32.77
25350;BME280;13302;48.796;11.978;2024-01-11T03:00:31;97755.03;;;-2.36;32.76
25350;BME280;13302;48.796;11.978;2024-01-11T03:03:18;97753.72;;;-2.50;33.22
25350;BME280;13302;48.796;11.978;2024-01-11T03:06:05;97753.72;;;-2.50;32.92
25350;BME280;13302;48.796;11.978;2024-01-11T03:08:52;97747.06;;;-2.42;32.61
25350;BME280;13302;48.796;11.978;2024-01-11T03:11:39;97742.63;;;-2.32;32.43
25350;BME280;13302;48.796;11.978;2024-01-11T03:14:27;97744.38;;;-2.42;32.38
25350;BME280;13302;48.796;11.978;2024-01-11T03:17:14;97735.75;;;-2.39;32.46
25350;BME280;13302;48.796;11.978;2024-01-11T03:20:01;97737.16;;;-2.37;32.43
25350;BME280;13302;48.796;11.978;2024-01-11T03:22:51;97733.78;;;-2.44;32.63
25350;BME280;13302;48.796;11.978;2024-01-11T03:25:39;97733.22;;;-2.46;32.69
25350;BME280;13302;48.796;11.978;2024-01-11T03:28:26;97735.81;;;-2.51;32.93
25350;BME280;13302;48.796;11.978;2024-01-11T03:31:13;97733.22;;;-2.46;32.63
25350;BME280;13302;48.796;11.978;2024-01-11T03:34:00;97738.38;;;-2.44;32.58
25350;BME280;13302;48.796;11.978;2024-01-11T03:36:47;97736.47;;;-2.44;32.42
25350;BME280;13302;48.796;11.978;2024-01-11T03:39:34;97729.78;;;-2.41;32.29
25350;BME280;13302;48.796;11.978;2024-01-11T03:42:22;97730.41;;;-2.67;32.62
25350;BME280;13302;48.796;11.978;2024-01-11T03:45:09;97729.50;;;-2.73;32.88
25350;BME280;13302;48.796;11.978;2024-01-11T03:47:56;97729.50;;;-2.73;32.88
25350;BME280;13302;48.796;11.978;2024-01-11T03:50:43;97726.28;;;-2.87;33.33
25350;BME280;13302;48.796;11.978;2024-01-11T03:53:34;97722.59;;;-2.81;33.02
25350;BME280;13302;48.796;11.978;2024-01-11T03:56:22;97715.31;;;-2.63;32.80
25350;BME280;13302;48.796;11.978;2024-01-11T03:59:10;97717.78;;;-2.62;32.69
25350;BME280;13302;48.796;11.978;2024-01-11T04:01:57;97722.38;;;-2.62;32.50
25350;BME280;13302;48.796;11.978;2024-01-11T04:04:45;97715.41;;;-2.75;32.98
25350;BME280;13302;48.796;11.978;2024-01-11T04:07:32;97720.97;;;-2.82;33.17
25350;BME280;13302;48.796;11.978;2024-01-11T04:10:19;97723.09;;;-2.67;32.67
25350;BME280;13302;48.796;11.978;2024-01-11T04:13:08;97718.69;;;-2.73;32.62
25350;BME280;13302;48.796;11.978;2024-01-11T04:15:55;97720.81;;;-2.75;32.81
25350;BME280;13302;48.796;11.978;2024-01-11T04:18:42;97714.34;;;-2.74;32.78
25350;BME280;13302;48.796;11.978;2024-01-11T04:21:30;97722.69;;;-2.75;32.89
25350;BME280;13302;48.796;11.978;2024-01-11T04:24:17;97717.69;;;-2.84;33.16
25350;BME280;13302;48.796;11.978;2024-01-11T04:27:04;97719.00;;;-2.86;33.21
25350;BME280;13302;48.796;11.978;2024-01-11T04:29:52;97716.44;;;-2.76;32.90
25350;BME280;13302;48.796;11.978;2024-01-11T04:32:39;97727.69;;;-2.67;32.66
25350;BME280;13302;48.796;11.978;2024-01-11T04:35:26;97723.25;;;-2.90;33.18
25350;BME280;13302;48.796;11.978;2024-01-11T04:38:13;97721.84;;;-2.93;33.36
25350;BME280;13302;48.796;11.978;2024-01-11T04:41:00;97724.44;;;-2.69;32.71
25350;BME280;13302;48.796;11.978;2024-01-11T04:43:47;97731.22;;;-2.67;32.62
25350;BME280;13302;48.796;11.978;2024-01-11T04:46:34;97725.09;;;-2.62;32.36
25350;BME280;13302;48.796;11.978;2024-01-11T04:49:21;97718.66;;;-2.90;33.02
25350;BME280;13302;48.796;11.978;2024-01-11T04:52:09;97720.03;;;-3.04;33.04
25350;BME280;13302;48.796;11.978;2024-01-11T04:54:55;97728.91;;;-2.92;32.83
25350;BME280;13302;48.796;11.978;2024-01-11T04:57:43;97729.41;;;-2.78;32.46
25350;BME280;13302;48.796;11.978;2024-01-11T05:00:30;97737.38;;;-2.71;32.49
25350;BME280;13302;48.796;11.978;2024-01-11T05:03:17;97744.19;;;-2.52;32.05
25350;BME280;13302;48.796;11.978;2024-01-11T05:06:04;97744.19;;;-2.52;32.07
25350;BME280;13302;48.796;11.978;2024-01-11T05:08:52;97739.19;;;-2.77;32.54
25350;BME280;13302;48.796;11.978;2024-01-11T05:11:39;97742.47;;;-3.03;32.78
25350;BME280;13302;48.796;11.978;2024-01-11T05:14:26;97739.44;;;-3.07;32.65
25350;BME280;13302;48.796;11.978;2024-01-11T05:17:13;97732.28;;;-3.13;32.83
25350;BME280;13302;48.796;11.978;2024-01-11T05:20:01;97737.78;;;-3.08;32.99
25350;BME280;13302;48.796;11.978;2024-01-11T05:22:48;97755.47;;;-2.89;32.56
25350;BME280;13302;48.796;11.978;2024-01-11T05:25:35;97766.88;;;-2.87;32.51
25350;BME280;13302;48.796;11.978;2024-01-11T05:28:22;97775.00;;;-2.87;32.47
25350;BME280;13302;48.796;11.978;2024-01-11T05:31:10;97767.88;;;-3.04;32.70
25350;BME280;13302;48.796;11.978;2024-01-11T05:33:58;97761.13;;;-3.18;33.04
25350;BME280;13302;48.796;11.978;2024-01-11T05:36:45;97756.53;;;-3.18;33.03
25350;BME280;13302;48.796;11.978;2024-01-11T05:39:32;97768.09;;;-3.22;33.27
25350;BME280;13302;48.796;11.978;2024-01-11T05:42:19;97763.91;;;-3.13;33.08
25350;BME280;13302;48.796;11.978;2024-01-11T05:45:06;97764.22;;;-3.27;33.42
25350;BME280;13302;48.796;11.978;2024-01-11T05:47:53;97765.28;;;-3.28;33.55
25350;BME280;13302;48.796;11.978;2024-01-11T05:50:41;97763.13;;;-3.26;33.69
25350;BME280;13302;48.796;11.978;2024-01-11T05:53:28;97773.78;;;-3.07;33.35
25350;BME280;13302;48.796;11.978;2024-01-11T05:56:16;97769.38;;;-2.97;32.91
25350;BME280;13302;48.796;11.978;2024-01-11T05:59:05;97759.94;;;-3.11;33.38
25350;BME280;13302;48.796;11.978;2024-01-11T06:01:52;97761.47;;;-3.15;33.16
25350;BME280;13302;48.796;11.978;2024-01-11T06:04:39;97765.81;;;-2.86;32.73
25350;BME280;13302;48.796;11.978;2024-01-11T06:07:26;97765.56;;;-2.84;32.61
25350;BME280;13302;48.796;11.978;2024-01-11T06:10:14;97772.63;;;-2.83;32.49
25350;BME280;13302;48.796;11.978;2024-01-11T06:13:01;97777.75;;;-2.98;32.60
25350;BME280;13302;48.796;11.978;2024-01-11T06:15:48;97783.81;;;-3.19;32.86
25350;BME280;13302;48.796;11.978;2024-01-11T06:18:36;97787.31;;;-3.07;32.66
25350;BME280;13302;48.796;11.978;2024-01-11T06:21:24;97779.97;;;-3.23;32.88
25350;BME280;13302;48.796;11.978;2024-01-11T06:24:11;97776.75;;;-3.20;33.12
25350;BME280;13302;48.796;11.978;2024-01-11T06:26:58;97779.84;;;-3.29;33.16
25350;BME280;13302;48.796;11.978;2024-01-11T06:29:45;97775.41;;;-3.35;33.34
25350;BME280;13302;48.796;11.978;2024-01-11T06:32:32;97771.75;;;-3.29;33.61
25350;BME280;13302;48.796;11.978;2024-01-11T06:35:20;97763.84;;;-3.30;33.43
25350;BME280;13302;48.796;11.978;2024-01-11T06:38:07;97767.69;;;-3.14;33.26
25350;BME280;13302;48.796;11.978;2024-01-11T06:40:54;97773.28;;;-3.04;32.88
25350;BME280;13302;48.796;11.978;2024-01-11T06:43:42;97769.03;;;-3.00;32.92
25350;BME280;13302;48.796;11.978;2024-01-11T06:46:29;97771.66;;;-3.05;33.00
25350;BME280;13302;48.796;11.978;2024-01-11T06:49:16;97773.63;;;-3.01;32.99
25350;BME280;13302;48.796;11.978;2024-01-11T06:52:04;97781.63;;;-2.94;32.75
25350;BME280;13302;48.796;11.978;2024-01-11T06:54:52;97786.31;;;-3.01;32.78
25350;BME280;13302;48.796;11.978;2024-01-11T06:57:39;97780.13;;;-3.13;32.97
25350;BME280;13302;48.796;11.978;2024-01-11T07:00:26;97786.75;;;-3.21;32.94
25350;BME280;13302;48.796;11.978;2024-01-11T07:03:13;97786.97;;;-3.11;32.67
25350;BME280;13302;48.796;11.978;2024-01-11T07:06:00;97791.81;;;-3.24;33.12
25350;BME280;13302;48.796;11.978;2024-01-11T07:08:47;97793.25;;;-3.34;33.18
25350;BME280;13302;48.796;11.978;2024-01-11T07:11:34;97777.97;;;-3.28;33.12
25350;BME280;13302;48.796;11.978;2024-01-11T07:14:21;97781.91;;;-3.47;33.26
25350;BME280;13302;48.796;11.978;2024-01-11T07:17:08;97784.81;;;-3.37;33.39
25350;BME280;13302;48.796;11.978;2024-01-11T07:19:56;97792.88;;;-3.26;33.09
25350;BME280;13302;48.796;11.978;2024-01-11T07:22:43;97817.44;;;-2.87;32.34
25350;BME280;13302;48.796;11.978;2024-01-11T07:25:30;97834.94;;;-2.78;31.97
25350;BME280;13302;48.796;11.978;2024-01-11T07:28:17;97837.00;;;-2.97;32.30
25350;BME280;13302;48.796;11.978;2024-01-11T07:31:04;97826.53;;;-3.33;33.09
25350;BME280;13302;48.796;11.978;2024-01-11T07:33:51;97823.13;;;-3.40;33.46
25350;BME280;13302;48.796;11.978;2024-01-11T07:36:39;97831.94;;;-3.45;33.51
25350;BME280;13302;48.796;11.978;2024-01-11T07:39:26;97844.50;;;-3.27;33.37
25350;BME280;13302;48.796;11.978;2024-01-11T07:42:14;97847.59;;;-3.35;33.59
25350;BME280;13302;48.796;11.978;2024-01-11T07:45:01;97856.50;;;-3.35;33.71
25350;BME280;13302;48.796;11.978;2024-01-11T07:47:48;97866.59;;;-3.18;33.58
25350;BME280;13302;48.796;11.978;2024-01-11T07:50:35;97856.59;;;-3.30;34.08
25350;BME280;13302;48.796;11.978;2024-01-11T07:53:22;97855.69;;;-3.35;34.40
25350;BME280;13302;48.796;11.978;2024-01-11T07:56:10;97860.13;;;-3.29;34.39
25350;BME280;13302;48.796;11.978;2024-01-11T07:58:57;97862.81;;;-3.17;34.22
25350;BME280;13302;48.796;11.978;2024-01-11T08:01:44;97857.41;;;-3.17;34.58
25350;BME280;13302;48.796;11.978;2024-01-11T08:04:32;97855.28;;;-3.15;34.73
25350;BME280;13302;48.796;11.978;2024-01-11T08:07:19;97852.09;;;-3.12;35.04
25350;BME280;13302;48.796;11.978;2024-01-11T08:10:06;97857.69;;;-2.91;34.64
25350;BME280;13302;48.796;11.978;2024-01-11T08:12:53;97859.44;;;-2.85;34.44
25350;BME280;13302;48.796;11.978;2024-01-11T08:15:42;97866.81;;;-2.80;34.32
25350;BME280;13302;48.796;11.978;2024-01-11T08:18:29;97875.34;;;-2.60;33.82
25350;BME280;13302;48.796;11.978;2024-01-11T08:21:17;97865.44;;;-2.54;34.01
25350;BME280;13302;48.796;11.978;2024-01-11T08:24:04;97867.72;;;-2.63;34.15
25350;BME280;13302;48.796;11.978;2024-01-11T08:26:52;97875.94;;;-2.58;34.44
25350;BME280;13302;48.796;11.978;2024-01-11T08:29:39;97870.25;;;-2.56;34.48
25350;BME280;13302;48.796;11.978;2024-01-11T08:32:27;97864.38;;;-2.53;34.97
25350;BME280;13302;48.796;11.978;2024-01-11T08:35:18;97860.50;;;-2.29;34.36
25350;BME280;13302;48.796;11.978;2024-01-11T08:38:05;97858.13;;;-2.09;34.06
25350;BME280;13302;48.796;11.978;2024-01-11T08:40:52;97861.59;;;-1.97;33.54
25350;BME280;13302;48.796;11.978;2024-01-11T08:43:39;97870.28;;;-1.95;33.80
25350;BME280;13302;48.796;11.978;2024-01-11T08:46:27;97870.03;;;-2.10;34.26
25350;BME280;13302;48.796;11.978;2024-01-11T08:49:14;97877.31;;;-2.10;34.92
25350;BME280;13302;48.796;11.978;2024-01-11T08:52:01;97866.91;;;-2.02;34.59
25350;BME280;13302;48.796;11.978;2024-01-11T08:54:49;97867.56;;;-1.95;34.79
25350;BME280;13302;48.796;11.978;2024-01-11T08:57:36;97872.94;;;-1.83;34.95
25350;BME280;13302;48.796;11.978;2024-01-11T09:00:24;97880.66;;;-1.75;34.84
25350;BME280;13302;48.796;11.978;2024-01-11T09:03:11;97874.50;;;-1.70;34.53
25350;BME280;13302;48.796;11.978;2024-01-11T09:06:01;97881.38;;;-1.63;34.68
25350;BME280;13302;48.796;11.978;2024-01-11T09:08:49;97874.13;;;-1.57;34.81
25350;BME280;13302;48.796;11.978;2024-01-11T09:11:36;97875.25;;;-1.53;34.80
25350;BME280;13302;48.796;11.978;2024-01-11T09:14:23;97872.09;;;-1.50;34.70
25350;BME280;13302;48.796;11.978;2024-01-11T09:17:10;97849.66;;;-1.46;34.74
25350;BME280;13302;48.796;11.978;2024-01-11T09:19:58;97844.28;;;-1.41;34.75
25350;BME280;13302;48.796;11.978;2024-01-11T09:22:45;97846.00;;;-1.34;34.77
25350;BME280;13302;48.796;11.978;2024-01-11T09:25:32;97844.16;;;-1.29;34.81
25350;BME280;13302;48.796;11.978;2024-01-11T09:28:19;97842.34;;;-1.23;34.70
25350;BME280;13302;48.796;11.978;2024-01-11T09:31:07;97832.88;;;-1.21;34.64
25350;BME280;13302;48.796;11.978;2024-01-11T09:33:54;97843.25;;;-1.18;34.68
25350;BME280;13302;48.796;11.978;2024-01-11T09:36:44;97844.13;;;-1.12;34.76
25350;BME280;13302;48.796;11.978;2024-01-11T09:39:32;97832.81;;;-1.09;34.77
25350;BME280;13302;48.796;11.978;2024-01-11T09:42:19;97837.47;;;-1.05;34.86
25350;BME280;13302;48.796;11.978;2024-01-11T09:45:08;97832.34;;;-1.01;34.79
25350;BME280;13302;48.796;11.978;2024-01-11T09:47:57;97819.66;;;-0.96;34.88
25350;BME280;13302;48.796;11.978;2024-01-11T09:50:44;97822.66;;;-0.92;34.71
25350;BME280;13302;48.796;11.978;2024-01-11T09:53:32;97828.94;;;-0.91;34.87
25350;BME280;13302;48.796;11.978;2024-01-11T09:56:20;97821.09;;;-0.88;34.58
25350;BME280;13302;48.796;11.978;2024-01-11T09:59:08;97820.59;;;-0.85;34.76
25350;BME280;13302;48.796;11.978;2024-01-11T10:01:58;97822.81;;;-0.82;34.77
25350;BME280;13302;48.796;11.978;2024-01-11T10:04:46;97828.31;;;-0.77;34.66
25350;BME280;13302;48.796;11.978;2024-01-11T10:07:34;97828.84;;;-0.75;34.83
25350;BME280;13302;48.796;11.978;2024-01-11T10:10:21;97821.84;;;-0.71;34.86
25350;BME280;13302;48.796;11.978;2024-01-11T10:13:08;97821.91;;;-0.66;34.84
25350;BME280;13302;48.796;11.978;2024-01-11T10:16:11;97815.94;;;-0.63;35.14
25350;BME280;13302;48.796;11.978;2024-01-11T10:19:02;97806.50;;;-0.60;34.97
25350;BME280;13302;48.796;11.978;2024-01-11T10:21:51;97807.34;;;-0.55;34.98
25350;BME280;13302;48.796;11.978;2024-01-11T10:24:39;97816.63;;;-0.51;34.88
25350;BME280;13302;48.796;11.978;2024-01-11T10:27:26;97810.41;;;-0.46;34.89
25350;BME280;13302;48.796;11.978;2024-01-11T10:30:16;97804.22;;;-0.41;34.91
25350;BME280;13302;48.796;11.978;2024-01-11T10:33:07;97808.06;;;-0.37;34.94
25350;BME280;13302;48.796;11.978;2024-01-11T10:35:54;97810.00;;;-0.33;35.00
25350;BME280;13302;48.796;11.978;2024-01-11T10:38:43;97809.22;;;-0.28;34.95
25350;BME280;13302;48.796;11.978;2024-01-11T10:41:39;97810.34;;;-0.24;35.04
25350;BME280;13302;48.796;11.978;2024-01-11T10:44:32;97824.28;;;-0.16;35.00
25350;BME280;13302;48.796;11.978;2024-01-11T10:47:21;97825.97;;;-0.10;35.07
25350;BME280;13302;48.796;11.978;2024-01-11T10:50:12;97825.78;;;-0.03;35.37
25350;BME280;13302;48.796;11.978;2024-01-11T10:56:17;97848.50;;;0.18;34.94
25350;BME280;13302;48.796;11.978;2024-01-11T10:59:06;97846.19;;;0.36;34.80
25350;BME280;13302;48.796;11.978;2024-01-11T11:01:54;97818.78;;;0.48;34.74
25350;BME280;13302;48.796;11.978;2024-01-11T11:04:43;97801.97;;;0.56;34.77
25350;BME280;13302;48.796;11.978;2024-01-11T11:07:33;97794.09;;;0.55;34.69
25350;BME280;13302;48.796;11.978;2024-01-11T11:10:21;97780.75;;;0.58;34.74
25350;BME280;13302;48.796;11.978;2024-01-11T11:13:09;97781.63;;;0.64;34.84
25350;BME280;13302;48.796;11.978;2024-01-11T11:15:56;97792.78;;;0.67;34.76
25350;BME280;13302;48.796;11.978;2024-01-11T11:18:52;97800.41;;;0.70;34.82
25350;BME280;13302;48.796;11.978;2024-01-11T11:21:44;97807.78;;;0.75;34.86
25350;BME280;13302;48.796;11.978;2024-01-11T11:24:34;97802.09;;;0.81;34.52
25350;BME280;13302;48.796;11.978;2024-01-11T11:27:21;97812.50;;;0.95;34.53
25350;BME280;13302;48.796;11.978;2024-01-11T11:30:08;97835.44;;;1.14;33.95
25350;BME280;13302;48.796;11.978;2024-01-11T11:32:56;97824.38;;;1.30;33.66
25350;BME280;13302;48.796;11.978;2024-01-11T11:35:48;97810.22;;;1.38;33.69
25350;BME280;13302;48.796;11.978;2024-01-11T11:38:35;97822.25;;;1.48;33.43
25350;BME280;13302;48.796;11.978;2024-01-11T11:41:24;97816.56;;;1.54;33.30
25350;BME280;13302;48.796;11.978;2024-01-11T11:44:12;97805.34;;;1.51;33.38
25350;BME280;13302;48.796;11.978;2024-01-11T11:47:25;97808.06;;;1.41;33.77
25350;BME280;13302;48.796;11.978;2024-01-11T11:50:22;97801.28;;;1.48;33.44
25350;BME280;13302;48.796;11.978;2024-01-11T11:53:10;97804.00;;;1.48;33.67
25350;BME280;13302;48.796;11.978;2024-01-11T11:55:58;97808.38;;;1.49;33.33
25350;BME280;13302;48.796;11.978;2024-01-11T11:58:45;97812.22;;;1.58;33.37
25350;BME280;13302;48.796;11.978;2024-01-11T12:01:33;97813.84;;;1.69;33.06
25350;BME280;13302;48.796;11.978;2024-01-11T12:04:22;97802.13;;;1.69;32.96
25350;BME280;13302;48.796;11.978;2024-01-11T12:07:09;97800.50;;;1.73;33.00
25350;BME280;13302;48.796;11.978;2024-01-11T12:09:56;97795.59;;;1.65;33.33
25350;BME280;13302;48.796;11.978;2024-01-11T12:12:43;97784.16;;;1.78;33.13
25350;BME280;13302;48.796;11.978;2024-01-11T12:15:30;97772.44;;;1.77;32.99
25350;BME280;13302;48.796;11.978;2024-01-11T12:18:17;97774.59;;;1.75;33.27
25350;BME280;13302;48.796;11.978;2024-01-11T12:21:05;97771.59;;;1.67;33.42
25350;BME280;13302;48.796;11.978;2024-01-11T12:23:52;97762.59;;;1.61;33.49
25350;BME280;13302;48.796;11.978;2024-01-11T12:26:39;97762.59;;;1.71;33.28
25350;BME280;13302;48.796;11.978;2024-01-11T12:29:30;97768.06;;;1.87;32.91
25350;BME280;13302;48.796;11.978;2024-01-11T12:32:29;97777.88;;;1.88;33.12
25350;BME280;13302;48.796;11.978;2024-01-11T12:35:17;97784.41;;;1.71;33.38
25350;BME280;13302;48.796;11.978;2024-01-11T12:38:05;97776.25;;;1.87;33.01
25350;BME280;13302;48.796;11.978;2024-01-11T12:40:53;97775.69;;;1.79;33.46
25350;BME280;13302;48.796;11.978;2024-01-11T12:43:40;97780.34;;;1.79;33.33
25350;BME280;13302;48.796;11.978;2024-01-11T12:46:27;97780.63;;;1.82;33.30
25350;BME280;13302;48.796;11.978;2024-01-11T12:49:14;97783.59;;;2.01;32.72
25350;BME280;13302;48.796;11.978;2024-01-11T12:52:02;97781.72;;;2.12;32.60
25350;BME280;13302;48.796;11.978;2024-01-11T12:54:52;97788.78;;;2.13;32.50
25350;BME280;13302;48.796;11.978;2024-01-11T12:57:39;97769.94;;;2.16;32.33
25350;BME280;13302;48.796;11.978;2024-01-11T13:00:26;97763.41;;;2.12;32.44
25350;BME280;13302;48.796;11.978;2024-01-11T13:03:14;97755.78;;;2.04;32.63
25350;BME280;13302;48.796;11.978;2024-01-11T13:06:02;97744.06;;;1.99;32.77
25350;BME280;13302;48.796;11.978;2024-01-11T13:08:51;97736.72;;;1.94;32.88
25350;BME280;13302;48.796;11.978;2024-01-11T13:11:39;97727.41;;;2.00;32.71
25350;BME280;13302;48.796;11.978;2024-01-11T13:14:26;97721.69;;;1.92;32.95
25350;BME280;13302;48.796;11.978;2024-01-11T13:17:15;97737.53;;;1.90;32.96
25350;BME280;13302;48.796;11.978;2024-01-11T13:20:02;97737.78;;;1.88;32.86
25350;BME280;13302;48.796;11.978;2024-01-11T13:23:11;97746.25;;;1.81;33.00
25350;BME280;13302;48.796;11.978;2024-01-11T13:25:58;97742.16;;;1.99;32.85
25350;BME280;13302;48.796;11.978;2024-01-11T13:28:45;97750.88;;;2.01;32.34
25350;BME280;13302;48.796;11.978;2024-01-11T13:31:32;97756.88;;;1.88;32.95
25350;BME280;13302;48.796;11.978;2024-01-11T13:34:19;97748.41;;;2.00;32.69
25350;BME280;13302;48.796;11.978;2024-01-11T13:37:07;97766.72;;;1.99;32.47
25350;BME280;13302;48.796;11.978;2024-01-11T13:39:54;97771.59;;;2.12;32.23
25350;BME280;13302;48.796;11.978;2024-01-11T13:42:41;97778.69;;;2.13;32.08
25350;BME280;13302;48.796;11.978;2024-01-11T13:45:28;97771.06;;;1.95;32.49
25350;BME280;13302;48.796;11.978;2024-01-11T13:48:16;97778.16;;;1.91;32.67
25350;BME280;13302;48.796;11.978;2024-01-11T13:51:04;97773.25;;;2.03;32.46
25350;BME280;13302;48.796;11.978;2024-01-11T13:53:51;97763.97;;;2.09;32.19
25350;BME280;13302;48.796;11.978;2024-01-11T13:56:38;97760.41;;;2.14;32.06
25350;BME280;13302;48.796;11.978;2024-01-11T13:59:25;97764.50;;;2.16;31.93
25350;BME280;13302;48.796;11.978;2024-01-11T14:02:13;97747.06;;;2.02;32.22
25350;BME280;13302;48.796;11.978;2024-01-11T14:05:00;97746.25;;;1.92;32.69
25350;BME280;13302;48.796;11.978;2024-01-11T14:07:47;97749.00;;;1.87;32.93
25350;BME280;13302;48.796;11.978;2024-01-11T14:10:35;97760.44;;;1.89;32.72
25350;BME280;13302;48.796;11.978;2024-01-11T14:13:22;97768.88;;;2.07;32.23
25350;BME280;13302;48.796;11.978;2024-01-11T14:16:09;97774.06;;;2.14;32.21
25350;BME280;13302;48.796;11.978;2024-01-11T14:18:56;97778.44;;;2.15;32.09
25350;BME280;13302;48.796;11.978;2024-01-11T14:21:43;97781.41;;;2.13;32.19
25350;BME280;13302;48.796;11.978;2024-01-11T14:24:30;97780.06;;;2.16;31.99
25350;BME280;13302;48.796;11.978;2024-01-11T14:27:23;97779.50;;;2.14;31.98
25350;BME280;13302;48.796;11.978;2024-01-11T14:30:11;97775.97;;;2.03;32.10
25350;BME280;13302;48.796;11.978;2024-01-11T14:32:58;97775.41;;;1.96;32.31
25350;BME280;13302;48.796;11.978;2024-01-11T14:35:45;97763.16;;;1.94;32.36
25350;BME280;13302;48.796;11.978;2024-01-11T14:38:32;97766.44;;;1.91;32.74
25350;BME280;13302;48.796;11.978;2024-01-11T14:41:19;97765.63;;;1.90;32.87
25350;BME280;13302;48.796;11.978;2024-01-11T14:44:07;97766.16;;;1.87;32.97